Time;durP1;ratioP1;P1;durP2;ratioP2;P2;SDS_P1;SDS_P2;PMS_P1;PMS_P2;Temp;Humidity;BMP_temperature;BMP_pressure;BME280_temperature;BME280_humidity;BME280_pressure;Samples;Min_cycle;Max_cycle;Signal;HPM_P1;HPM_P2
2023/05/12 00:01:58;;;;;;;4.97;3.60;;;11.90;99.90;;;;;;4969829;28;20038;-77
2023/05/12 00:04:27;;;;;;;6.93;3.90;;;11.80;99.90;;;;;;4969358;28;20072;-77
2023/05/12 00:06:56;;;;;;;6.00;4.30;;;11.80;99.90;;;;;;4967078;28;20054;-76
2023/05/12 00:09:24;;;;;;;4.63;4.13;;;11.80;99.90;;;;;;4969167;28;20061;-77
2023/05/12 00:11:56;;;;;;;6.30;4.00;;;11.80;99.90;;;;;;4966770;28;20077;-77
2023/05/12 00:14:25;;;;;;;6.85;4.18;;;11.80;99.90;;;;;;4965101;28;20445;-77
2023/05/12 00:16:50;;;;;;;5.20;4.57;;;11.80;99.90;;;;;;4966826;28;20457;-77
2023/05/12 00:19:20;;;;;;;6.72;4.38;;;11.80;99.90;;;;;;4967756;28;20033;-77
2023/05/12 00:21:48;;;;;;;7.63;5.82;;;11.80;99.90;;;;;;4985626;28;20565;-77
2023/05/12 00:24:14;;;;;;;6.93;4.72;;;11.80;99.90;;;;;;4984897;28;20031;-77
2023/05/12 00:26:48;;;;;;;5.55;3.83;;;11.80;99.90;;;;;;4967123;28;20109;-77
2023/05/12 00:29:17;;;;;;;8.10;4.60;;;11.70;99.90;;;;;;4960799;28;20147;-77
2023/05/12 00:31:45;;;;;;;6.10;4.28;;;11.80;99.90;;;;;;4965856;28;20042;-77
2023/05/12 00:34:11;;;;;;;7.65;5.10;;;11.70;99.90;;;;;;4966047;28;20063;-77
2023/05/12 00:36:36;;;;;;;7.22;5.32;;;11.70;99.90;;;;;;4969765;28;20043;-77
2023/05/12 00:39:02;;;;;;;7.55;5.28;;;11.70;99.90;;;;;;4961828;28;20054;-77
2023/05/12 00:41:33;;;;;;;6.20;4.78;;;11.70;99.90;;;;;;4969480;28;20069;-77
2023/05/12 00:43:59;;;;;;;6.32;5.00;;;11.70;99.90;;;;;;4965501;28;20066;-76
2023/05/12 00:46:28;;;;;;;6.50;4.97;;;11.70;99.90;;;;;;4969219;28;20058;-76
2023/05/12 00:48:53;;;;;;;6.97;4.70;;;11.60;99.90;;;;;;4970773;28;20508;-76
2023/05/12 00:51:19;;;;;;;6.97;5.45;;;11.70;99.90;;;;;;4972531;28;20034;-76
2023/05/12 00:53:47;;;;;;;6.68;5.18;;;11.60;99.90;;;;;;4968140;28;20026;-76
2023/05/12 00:56:17;;;;;;;8.65;5.75;;;11.60;99.90;;;;;;4989673;28;20022;-76
2023/05/12 00:58:43;;;;;;;6.15;4.90;;;11.70;99.90;;;;;;4976388;28;20082;-76
2023/05/12 01:01:17;;;;;;;8.10;4.75;;;11.70;99.90;;;;;;4973079;28;20018;-76
2023/05/12 01:03:44;;;;;;;6.82;4.30;;;11.70;99.90;;;;;;4989679;28;20027;-77
2023/05/12 01:06:33;;;;;;;9.23;5.25;;;11.60;99.90;;;;;;4970811;28;20027;-76
2023/05/12 01:08:59;;;;;;;7.38;5.15;;;11.70;99.90;;;;;;4972753;28;20066;-76
2023/05/12 01:11:25;;;;;;;7.50;5.43;;;11.60;99.90;;;;;;4980177;28;20041;-76
2023/05/12 01:13:53;;;;;;;6.13;4.88;;;11.60;99.90;;;;;;4971794;28;20027;-76
2023/05/12 01:16:22;;;;;;;10.25;6.30;;;11.60;99.90;;;;;;4972764;28;20027;-76
2023/05/12 01:18:54;;;;;;;11.52;7.18;;;11.60;99.90;;;;;;4974162;28;20019;-76
2023/05/12 01:21:20;;;;;;;12.10;8.32;;;11.60;99.90;;;;;;4985389;28;20050;-76
2023/05/12 01:23:53;;;;;;;11.27;8.07;;;11.60;99.90;;;;;;4976439;28;20037;-76
2023/05/12 01:26:28;;;;;;;11.00;8.50;;;11.60;99.90;;;;;;4966330;28;20038;-76
2023/05/12 01:28:56;;;;;;;12.63;9.07;;;11.60;99.90;;;;;;4972429;28;20360;-76
2023/05/12 01:31:22;;;;;;;13.95;9.02;;;11.60;99.90;;;;;;4973568;28;20033;-76
2023/05/12 01:33:51;;;;;;;13.82;9.15;;;11.60;99.90;;;;;;4973864;28;20019;-76
2023/05/12 01:36:19;;;;;;;13.70;9.45;;;11.50;99.90;;;;;;4971012;28;20437;-76
2023/05/12 01:38:47;;;;;;;13.18;8.93;;;11.50;99.90;;;;;;4970161;28;20037;-76
2023/05/12 01:41:16;;;;;;;13.70;9.30;;;11.50;99.90;;;;;;4965841;28;20023;-76
2023/05/12 01:43:42;;;;;;;12.73;9.00;;;11.50;99.90;;;;;;4970675;28;20045;-76
2023/05/12 01:46:09;;;;;;;12.70;8.88;;;11.50;99.90;;;;;;4965775;28;20035;-76
2023/05/12 01:48:42;;;;;;;14.48;9.32;;;11.50;99.90;;;;;;4972758;28;20112;-76
2023/05/12 01:51:11;;;;;;;13.90;9.70;;;11.50;99.90;;;;;;4971756;28;20018;-76
2023/05/12 01:53:36;;;;;;;13.65;9.15;;;11.50;99.90;;;;;;4974221;28;20027;-75
2023/05/12 01:56:02;;;;;;;15.70;9.45;;;11.50;99.90;;;;;;4967272;28;20031;-75
2023/05/12 01:58:31;;;;;;;14.35;9.65;;;11.50;99.90;;;;;;4967703;28;20027;-76
2023/05/12 02:00:59;;;;;;;15.48;10.48;;;11.50;99.90;;;;;;4969575;28;20043;-76
2023/05/12 02:03:37;;;;;;;15.40;10.02;;;11.50;99.90;;;;;;4969795;28;20385;-76
2023/05/12 02:06:03;;;;;;;14.63;10.40;;;11.50;99.90;;;;;;4966583;28;20034;-76
2023/05/12 02:08:34;;;;;;;18.70;11.70;;;11.50;99.90;;;;;;4965446;28;20027;-76
2023/05/12 02:11:07;;;;;;;16.60;10.27;;;11.50;99.90;;;;;;4973547;28;20061;-76
2023/05/12 02:13:39;;;;;;;14.65;9.95;;;11.50;99.90;;;;;;4967818;28;20038;-76
2023/05/12 02:16:05;;;;;;;14.82;10.02;;;11.50;99.90;;;;;;4968324;28;20038;-77
2023/05/12 02:18:36;;;;;;;15.43;10.60;;;11.50;99.90;;;;;;4972871;28;20085;-76
2023/05/12 02:21:03;;;;;;;16.50;10.80;;;11.50;99.90;;;;;;4964849;28;20059;-76
2023/05/12 02:23:31;;;;;;;15.65;9.88;;;11.50;99.90;;;;;;4969530;28;20023;-76
2023/05/12 02:26:00;;;;;;;16.35;8.95;;;11.50;99.90;;;;;;4968972;28;20437;-76
2023/05/12 02:28:44;;;;;;;15.23;8.82;;;11.50;99.90;;;;;;4964670;28;20046;-76
2023/05/12 02:33:41;;;;;;;13.60;9.15;;;11.50;99.90;;;;;;4975892;28;20055;-75
2023/05/12 02:36:07;;;;;;;12.50;7.97;;;11.50;99.90;;;;;;4977477;28;20035;-75
2023/05/12 02:38:36;;;;;;;14.50;8.90;;;11.50;99.90;;;;;;4978593;28;20115;-75
2023/05/12 02:41:04;;;;;;;15.73;9.38;;;11.50;99.90;;;;;;4985449;28;20025;-74
2023/05/12 02:43:36;;;;;;;16.95;11.38;;;11.50;99.90;;;;;;4937043;29;20032;-74
2023/05/12 02:46:02;;;;;;;15.15;10.35;;;11.50;99.90;;;;;;4957114;28;20085;-74
2023/05/12 02:48:34;;;;;;;18.08;12.10;;;11.50;99.90;;;;;;4963825;28;20027;-75
2023/05/12 02:51:06;;;;;;;20.30;11.43;;;11.50;99.90;;;;;;4963139;28;20023;-75
2023/05/12 02:53:31;;;;;;;16.65;10.90;;;11.50;99.90;;;;;;4957783;29;20027;-76
2023/05/12 02:55:57;;;;;;;16.27;10.45;;;11.50;99.90;;;;;;4976043;28;20027;-75
2023/05/12 02:58:26;;;;;;;17.15;10.13;;;11.50;99.90;;;;;;4952302;29;20541;-75
2023/05/12 03:00:54;;;;;;;16.42;10.25;;;11.50;99.90;;;;;;4951021;29;20023;-74
2023/05/12 03:03:20;;;;;;;18.33;10.55;;;11.40;99.90;;;;;;4966200;28;20054;-74
2023/05/12 03:05:50;;;;;;;14.32;9.95;;;11.40;99.90;;;;;;4965032;28;20665;-75
2023/05/12 03:08:18;;;;;;;15.70;11.10;;;11.40;99.90;;;;;;4957191;29;20030;-75
2023/05/12 03:10:47;;;;;;;14.90;9.70;;;11.40;99.90;;;;;;4956973;29;20066;-75
2023/05/12 03:13:15;;;;;;;16.65;9.40;;;11.40;99.90;;;;;;4956964;29;20019;-74
2023/05/12 03:15:44;;;;;;;17.40;10.75;;;11.40;99.90;;;;;;4971547;28;20548;-75
2023/05/12 03:18:15;;;;;;;15.95;10.02;;;11.40;99.90;;;;;;4956576;28;20312;-74
2023/05/12 03:20:43;;;;;;;17.80;10.60;;;11.40;99.90;;;;;;4957167;28;20036;-74
2023/05/12 03:23:09;;;;;;;15.57;9.95;;;11.40;99.90;;;;;;4956087;29;20059;-75
2023/05/12 03:25:37;;;;;;;16.17;10.32;;;11.40;99.90;;;;;;4956431;29;20081;-75
2023/05/12 03:28:04;;;;;;;15.65;10.20;;;11.40;99.90;;;;;;4956756;29;20035;-75
2023/05/12 03:30:32;;;;;;;17.30;10.27;;;11.40;99.90;;;;;;4956889;29;20075;-75
2023/05/12 03:33:01;;;;;;;18.60;10.35;;;11.40;99.90;;;;;;4956643;29;20106;-75
2023/05/12 03:35:26;;;;;;;16.65;9.57;;;11.40;99.90;;;;;;4956616;29;20059;-75
2023/05/12 03:37:58;;;;;;;14.95;9.88;;;11.40;99.90;;;;;;4956396;29;20023;-75
2023/05/12 03:40:30;;;;;;;14.77;10.45;;;11.40;99.90;;;;;;4956813;29;20486;-74
2023/05/12 03:42:58;;;;;;;18.48;9.68;;;11.40;99.90;;;;;;4971254;28;20019;-75
2023/05/12 03:45:27;;;;;;;16.13;9.88;;;11.40;99.90;;;;;;4955816;29;20027;-75
2023/05/12 03:47:53;;;;;;;14.68;10.07;;;11.40;99.90;;;;;;4936488;29;20096;-74
2023/05/12 03:50:21;;;;;;;13.80;9.30;;;11.40;99.90;;;;;;4949571;28;20035;-75
2023/05/12 03:52:47;;;;;;;15.07;10.57;;;11.40;99.90;;;;;;4964065;28;20062;-75
2023/05/12 03:55:25;;;;;;;15.80;10.30;;;11.40;99.90;;;;;;4943081;28;20490;-74
2023/05/12 03:57:50;;;;;;;16.58;9.85;;;11.40;99.90;;;;;;4949251;29;20027;-74
2023/05/12 04:00:19;;;;;;;14.95;10.40;;;11.40;99.90;;;;;;4952443;28;20081;-75
2023/05/12 04:02:45;;;;;;;19.65;11.18;;;11.40;99.90;;;;;;4939294;29;20106;-75
2023/05/12 04:05:11;;;;;;;17.85;10.93;;;11.40;99.90;;;;;;4956191;29;20121;-75
2023/05/12 04:07:39;;;;;;;15.02;10.05;;;11.40;99.90;;;;;;4956184;29;20016;-74
2023/05/12 04:10:06;;;;;;;15.70;10.10;;;11.40;99.90;;;;;;4938237;29;20078;-74
2023/05/12 04:12:31;;;;;;;15.70;9.98;;;11.40;99.90;;;;;;4955290;28;20032;-74
2023/05/12 04:14:57;;;;;;;16.08;10.27;;;11.40;99.90;;;;;;4974321;28;20198;-74
2023/05/12 04:17:28;;;;;;;15.65;9.80;;;11.40;99.90;;;;;;4960027;28;20029;-74
2023/05/12 04:19:54;;;;;;;15.00;9.48;;;11.40;99.90;;;;;;4954552;28;20050;-74
2023/05/12 04:22:22;;;;;;;19.42;9.30;;;11.40;99.90;;;;;;4950085;29;20031;-74
2023/05/12 04:24:54;;;;;;;13.25;8.65;;;11.40;99.90;;;;;;4970469;28;20027;-74
2023/05/12 04:27:20;;;;;;;16.42;8.82;;;11.40;99.90;;;;;;4952161;28;20033;-73
2023/05/12 04:29:55;;;;;;;13.40;8.25;;;11.40;99.90;;;;;;4955751;28;20188;-74
2023/05/12 04:32:26;;;;;;;12.52;7.85;;;11.40;99.90;;;;;;4955408;29;20054;-75
2023/05/12 04:34:55;;;;;;;10.45;6.88;;;11.40;99.90;;;;;;4955899;29;20449;-74
2023/05/12 04:37:21;;;;;;;12.82;8.00;;;11.40;99.90;;;;;;4955839;29;20031;-73
2023/05/12 04:39:53;;;;;;;12.85;8.02;;;11.40;99.90;;;;;;4953715;28;20023;-75
2023/05/12 04:42:18;;;;;;;12.63;8.30;;;11.40;99.90;;;;;;4957617;28;20043;-74
2023/05/12 04:44:50;;;;;;;12.65;8.35;;;11.40;99.90;;;;;;4955228;29;20490;-73
2023/05/12 04:47:21;;;;;;;12.85;8.73;;;11.40;99.90;;;;;;4956012;28;20090;-74
2023/05/12 04:49:47;;;;;;;15.38;9.45;;;11.40;99.90;;;;;;4961318;28;20035;-75
2023/05/12 04:52:20;;;;;;;13.75;9.25;;;11.40;99.90;;;;;;4964883;28;20038;-75
2023/05/12 04:54:48;;;;;;;12.38;8.57;;;11.40;99.90;;;;;;4954954;28;20030;-75
2023/05/12 04:57:23;;;;;;;15.05;8.85;;;11.40;99.90;;;;;;4954826;28;20058;-74
2023/05/12 04:59:49;;;;;;;11.13;8.07;;;11.50;99.90;;;;;;4941013;28;20053;-73
2023/05/12 05:02:17;;;;;;;13.10;7.68;;;11.50;99.90;;;;;;4953883;29;20106;-74
2023/05/12 05:04:43;;;;;;;12.35;8.00;;;11.50;99.90;;;;;;4950792;28;20071;-73
2023/05/12 05:07:09;;;;;;;13.10;8.25;;;11.50;99.90;;;;;;4952509;28;20454;-73
2023/05/12 05:09:34;;;;;;;12.95;8.20;;;11.50;99.90;;;;;;4952108;28;20055;-73
2023/05/12 05:12:03;;;;;;;11.45;7.93;;;11.60;99.90;;;;;;4971748;28;20042;-73
2023/05/12 05:14:35;;;;;;;11.50;7.85;;;11.60;99.90;;;;;;4956788;28;20037;-73
2023/05/12 05:17:06;;;;;;;14.55;8.38;;;11.60;99.90;;;;;;4953845;28;20023;-73
2023/05/12 05:19:35;;;;;;;11.77;7.45;;;11.60;99.90;;;;;;4950800;28;20023;-73
2023/05/12 05:22:07;;;;;;;11.63;8.45;;;11.70;99.90;;;;;;4949943;28;20027;-73
2023/05/12 05:24:42;;;;;;;13.57;9.13;;;11.70;99.90;;;;;;4953816;28;20027;-74
2023/05/12 05:27:07;;;;;;;14.23;9.20;;;11.70;99.90;;;;;;4951314;28;20032;-73
2023/05/12 05:29:36;;;;;;;11.52;7.85;;;11.80;99.90;;;;;;4972095;28;20031;-72
2023/05/12 05:32:03;;;;;;;14.27;8.45;;;11.70;99.90;;;;;;4923513;28;20066;-74
2023/05/12 05:34:28;;;;;;;14.15;8.80;;;11.80;99.90;;;;;;4960880;28;20036;-73
2023/05/12 05:36:54;;;;;;;12.95;8.43;;;11.80;99.90;;;;;;4946549;28;20023;-77
2023/05/12 05:39:20;;;;;;;12.15;7.75;;;11.80;99.90;;;;;;4947389;28;20714;-75
2023/05/12 05:41:48;;;;;;;15.48;9.52;;;11.90;99.90;;;;;;4950716;28;20019;-75
2023/05/12 05:44:17;;;;;;;12.60;8.35;;;11.90;99.90;;;;;;4945897;28;20500;-74
2023/05/12 05:46:43;;;;;;;11.43;7.85;;;11.90;99.90;;;;;;4951193;28;20031;-74
2023/05/12 05:49:08;;;;;;;12.25;7.70;;;11.90;99.90;;;;;;4949325;28;20794;-73
2023/05/12 05:51:34;;;;;;;9.75;7.13;;;12.00;99.90;;;;;;4950754;28;20441;-74
2023/05/12 05:54:01;;;;;;;16.33;8.48;;;12.00;99.90;;;;;;4963435;28;20437;-74
2023/05/12 05:56:27;;;;;;;11.90;7.15;;;12.00;99.90;;;;;;4967430;28;20051;-74
2023/05/12 05:58:52;;;;;;;9.23;6.82;;;12.10;99.90;;;;;;4956840;28;20066;-74
2023/05/12 06:01:21;;;;;;;16.75;8.13;;;12.10;99.90;;;;;;4956142;28;20059;-74
2023/05/12 06:03:47;;;;;;;10.65;7.18;;;12.10;99.90;;;;;;4968570;28;20446;-74
2023/05/12 06:06:15;;;;;;;12.13;7.82;;;12.10;99.90;;;;;;4952410;28;20047;-74
2023/05/12 06:08:41;;;;;;;12.10;8.52;;;12.20;99.90;;;;;;4968807;28;20398;-74
2023/05/12 06:11:06;;;;;;;13.00;8.45;;;12.20;99.90;;;;;;4949722;28;20129;-74
2023/05/12 06:13:32;;;;;;;9.63;6.97;;;12.30;99.90;;;;;;4967571;28;20069;-75
2023/05/12 06:15:58;;;;;;;10.80;7.47;;;12.30;99.90;;;;;;4948686;28;20046;-73
2023/05/12 06:18:26;;;;;;;12.65;8.13;;;12.30;99.90;;;;;;4951642;28;20034;-74
2023/05/12 06:20:55;;;;;;;12.65;8.80;;;12.40;99.90;;;;;;4950001;28;20106;-74
2023/05/12 06:23:35;;;;;;;13.38;8.38;;;12.40;99.90;;;;;;4955883;28;20482;-75
2023/05/12 06:26:01;;;;;;;14.35;8.05;;;12.40;99.90;;;;;;4955317;28;20528;-75
2023/05/12 06:28:33;;;;;;;10.57;7.50;;;12.50;99.90;;;;;;4959594;28;20027;-75
2023/05/12 06:31:07;;;;;;;11.40;6.97;;;12.50;99.90;;;;;;4954393;28;20026;-76
2023/05/12 06:33:33;;;;;;;12.75;8.00;;;12.50;99.90;;;;;;4958868;28;20043;-75
2023/05/12 06:35:59;;;;;;;11.25;7.15;;;12.50;99.90;;;;;;4958813;28;20394;-75
2023/05/12 06:38:28;;;;;;;12.02;7.63;;;12.60;99.90;;;;;;4954662;28;20486;-76
2023/05/12 06:40:53;;;;;;;11.10;7.13;;;12.60;99.90;;;;;;4957820;28;20059;-76
2023/05/12 06:43:19;;;;;;;12.18;7.57;;;12.60;99.90;;;;;;4954905;28;20035;-76
2023/05/12 06:45:44;;;;;;;13.43;7.32;;;12.60;99.90;;;;;;4957992;28;20478;-77
2023/05/12 06:48:10;;;;;;;12.57;8.48;;;12.60;99.90;;;;;;4938879;28;20023;-76
2023/05/12 06:50:36;;;;;;;11.15;7.97;;;12.60;99.90;;;;;;4960425;28;20404;-77
2023/05/12 06:53:02;;;;;;;12.13;7.32;;;12.70;99.90;;;;;;4957908;28;20042;-76
2023/05/12 06:55:27;;;;;;;12.43;7.57;;;12.70;99.90;;;;;;4957174;28;20031;-76
2023/05/12 06:57:54;;;;;;;9.93;7.10;;;12.70;99.90;;;;;;4953056;28;20047;-76
2023/05/12 07:00:29;;;;;;;10.77;7.55;;;12.80;99.90;;;;;;4954986;28;20473;-76
2023/05/12 07:02:57;;;;;;;12.25;8.10;;;12.80;99.90;;;;;;4957313;28;20568;-76
2023/05/12 07:05:29;;;;;;;13.63;8.43;;;12.90;99.90;;;;;;4955608;28;20191;-76
2023/05/12 07:07:55;;;;;;;13.63;7.82;;;12.90;99.90;;;;;;4974833;28;20030;-77
2023/05/12 07:10:23;;;;;;;14.85;8.15;;;12.90;99.90;;;;;;4956874;28;20031;-76
2023/05/12 07:12:49;;;;;;;11.40;7.63;;;12.90;99.90;;;;;;4972308;28;20486;-76
2023/05/12 07:15:18;;;;;;;12.63;8.57;;;13.00;99.90;;;;;;4956003;28;20088;-76
2023/05/12 07:17:43;;;;;;;12.02;7.82;;;13.00;99.90;;;;;;4956213;28;20031;-76
2023/05/12 07:20:09;;;;;;;10.02;7.30;;;13.10;99.90;;;;;;4970057;28;20023;-76
2023/05/12 07:22:36;;;;;;;13.40;7.85;;;13.20;99.90;;;;;;4954353;28;20486;-76
2023/05/12 07:25:06;;;;;;;12.93;7.80;;;13.20;99.90;;;;;;4969984;28;20061;-76
2023/05/12 07:27:35;;;;;;;11.77;7.75;;;13.20;99.90;;;;;;4957254;28;20354;-76
2023/05/12 07:30:05;;;;;;;12.57;7.63;;;13.20;99.90;;;;;;4952221;28;20494;-76
2023/05/12 07:32:31;;;;;;;10.30;6.57;;;13.10;99.90;;;;;;4970508;28;20073;-76
2023/05/12 07:34:57;;;;;;;10.60;7.32;;;13.20;99.90;;;;;;4953902;28;20430;-76
2023/05/12 07:37:28;;;;;;;11.57;8.13;;;13.20;99.90;;;;;;4952921;28;20020;-76
2023/05/12 07:40:04;;;;;;;11.18;7.72;;;13.20;99.90;;;;;;4957075;28;20043;-76
2023/05/12 07:42:30;;;;;;;11.23;7.05;;;13.20;99.90;;;;;;4972787;28;20542;-77
2023/05/12 07:44:56;;;;;;;12.85;7.70;;;13.20;99.90;;;;;;4959188;28;20058;-76
2023/05/12 07:47:25;;;;;;;10.52;7.43;;;13.30;99.90;;;;;;4958779;28;20031;-77
2023/05/12 07:49:50;;;;;;;9.95;7.05;;;13.40;99.90;;;;;;4967377;28;20027;-77
2023/05/12 07:52:16;;;;;;;11.90;7.53;;;13.40;99.90;;;;;;4968742;28;20070;-77
2023/05/12 07:54:41;;;;;;;10.70;7.03;;;13.60;99.90;;;;;;4950895;28;20026;-77
2023/05/12 07:57:10;;;;;;;12.00;7.05;;;13.70;99.90;;;;;;4955904;28;20485;-76
2023/05/12 07:59:39;;;;;;;13.80;6.47;;;13.80;99.90;;;;;;4952238;28;20031;-76
2023/05/12 08:02:05;;;;;;;12.95;6.55;;;14.00;99.90;;;;;;4953748;28;20077;-76
2023/05/12 08:04:30;;;;;;;8.13;6.07;;;14.00;99.90;;;;;;4966748;28;20490;-76
2023/05/12 08:06:56;;;;;;;9.13;5.82;;;14.10;99.90;;;;;;4953553;28;20031;-76
2023/05/12 08:09:22;;;;;;;8.98;6.00;;;14.10;99.90;;;;;;4967868;28;20031;-76
2023/05/12 08:11:48;;;;;;;7.80;5.35;;;14.10;99.90;;;;;;4954853;28;20101;-76
2023/05/12 08:14:14;;;;;;;7.85;5.20;;;14.20;99.90;;;;;;4956242;28;20045;-75
2023/05/12 08:16:41;;;;;;;8.18;5.22;;;14.10;99.90;;;;;;4952094;28;20039;-75
2023/05/12 08:19:13;;;;;;;8.70;5.05;;;14.20;99.90;;;;;;4966774;28;20050;-76
2023/05/12 08:21:39;;;;;;;8.40;5.00;;;14.30;99.90;;;;;;4950889;28;20030;-75
2023/05/12 08:24:05;;;;;;;8.93;5.53;;;14.30;99.90;;;;;;4954751;28;20019;-76
2023/05/12 08:26:33;;;;;;;9.40;5.45;;;14.40;99.90;;;;;;4966514;28;20026;-76
2023/05/12 08:29:00;;;;;;;7.88;5.28;;;14.50;99.90;;;;;;4950398;28;20042;-77
2023/05/12 08:31:26;;;;;;;7.63;4.85;;;14.40;99.90;;;;;;4952875;28;20019;-76
2023/05/12 08:33:52;;;;;;;4.70;3.72;;;14.50;99.90;;;;;;4967618;28;20057;-76
2023/05/12 08:36:20;;;;;;;6.63;4.28;;;14.50;99.90;;;;;;4958022;28;20071;-76
2023/05/12 08:38:46;;;;;;;5.20;3.78;;;14.40;99.90;;;;;;4969697;28;20031;-76
2023/05/12 08:42:12;;;;;;;5.43;3.70;;;14.40;99.90;;;;;;4957241;28;20023;-76
2023/05/12 08:44:38;;;;;;;6.13;3.72;;;14.30;99.90;;;;;;4876763;29;20029;-76
2023/05/12 08:47:11;;;;;;;4.35;3.58;;;14.20;99.90;;;;;;4931396;29;20043;-76
2023/05/12 08:49:42;;;;;;;7.35;3.53;;;14.20;99.90;;;;;;4935395;29;20027;-76
2023/05/12 08:52:11;;;;;;;6.30;2.95;;;14.20;99.90;;;;;;4967573;28;20497;-76
2023/05/12 08:54:40;;;;;;;6.45;4.78;;;14.20;99.90;;;;;;4952988;29;20034;-76
2023/05/12 08:57:07;;;;;;;7.95;4.57;;;14.10;99.90;;;;;;4949972;28;20027;-76
2023/05/12 08:59:35;;;;;;;6.80;4.57;;;14.10;99.90;;;;;;4949042;28;20027;-76
2023/05/12 09:02:06;;;;;;;6.95;3.75;;;14.20;99.90;;;;;;4938390;28;20058;-76
2023/05/12 09:04:31;;;;;;;6.03;3.83;;;14.10;99.90;;;;;;4954870;28;20457;-76
2023/05/12 09:06:58;;;;;;;4.85;3.70;;;14.20;99.90;;;;;;4965656;28;20023;-76
2023/05/12 09:09:28;;;;;;;5.45;3.63;;;14.30;99.90;;;;;;4956594;28;20529;-76
2023/05/12 09:11:58;;;;;;;5.78;3.53;;;14.30;99.90;;;;;;4949854;28;20114;-76
2023/05/12 09:14:34;;;;;;;6.90;4.03;;;14.40;99.90;;;;;;4959090;28;20035;-77
2023/05/12 09:17:03;;;;;;;5.13;3.70;;;14.50;99.90;;;;;;4967882;28;20027;-77
2023/05/12 09:19:33;;;;;;;5.75;3.38;;;14.60;99.90;;;;;;4967398;28;20059;-75
2023/05/12 09:22:13;;;;;;;7.97;3.80;;;14.70;99.90;;;;;;4975806;28;20027;-75
2023/05/12 09:24:39;;;;;;;4.65;3.63;;;14.90;99.90;;;;;;4970916;28;20027;-75
2023/05/12 09:27:06;;;;;;;3.95;3.47;;;14.90;99.90;;;;;;4960363;28;20106;-74
2023/05/12 09:29:32;;;;;;;5.80;3.65;;;15.00;99.90;;;;;;4960688;28;20394;-74
2023/05/12 09:32:01;;;;;;;7.93;3.80;;;15.00;99.90;;;;;;4959204;28;20023;-75
2023/05/12 09:34:27;;;;;;;4.13;3.08;;;15.10;99.90;;;;;;4989207;28;20036;-75
2023/05/12 09:37:00;;;;;;;6.53;3.40;;;15.10;99.90;;;;;;4965889;28;20023;-74
2023/05/12 09:39:27;;;;;;;5.18;3.90;;;15.20;99.90;;;;;;4956674;28;20076;-75
2023/05/12 09:41:56;;;;;;;4.47;3.05;;;15.20;99.90;;;;;;4957214;28;20023;-75
2023/05/12 09:44:23;;;;;;;4.72;3.50;;;15.10;99.90;;;;;;4966587;28;20022;-75
2023/05/12 09:46:50;;;;;;;7.22;3.47;;;15.10;99.90;;;;;;4963080;28;20034;-75
2023/05/12 09:49:20;;;;;;;3.78;2.80;;;15.10;99.90;;;;;;4957537;28;20095;-75
2023/05/12 09:51:46;;;;;;;3.20;2.35;;;15.00;99.90;;;;;;4960366;28;20060;-75
2023/05/12 09:54:12;;;;;;;3.75;2.33;;;14.90;99.90;;;;;;4949323;29;20023;-75
2023/05/12 09:56:41;;;;;;;5.15;3.13;;;14.80;99.90;;;;;;4942690;28;20050;-76
2023/05/12 09:59:12;;;;;;;5.00;3.08;;;14.80;99.90;;;;;;4956056;28;20122;-75
2023/05/12 10:01:46;;;;;;;4.20;2.33;;;14.80;99.90;;;;;;4956548;29;20019;-75
2023/05/12 10:04:12;;;;;;;3.83;2.33;;;14.80;99.90;;;;;;4956787;29;20385;-75
2023/05/12 10:06:46;;;;;;;4.28;1.90;;;14.90;99.90;;;;;;4939462;29;20023;-74
2023/05/12 10:09:32;;;;;;;3.30;2.33;;;15.00;99.90;;;;;;4956539;28;20020;-76
2023/05/12 10:12:03;;;;;;;6.10;2.78;;;15.00;99.90;;;;;;4957275;28;20470;-75
2023/05/12 10:14:29;;;;;;;3.03;2.17;;;15.10;99.90;;;;;;4951767;28;20039;-75
2023/05/12 10:17:02;;;;;;;3.08;2.28;;;15.10;99.90;;;;;;4957171;28;20062;-75
2023/05/12 10:19:34;;;;;;;2.78;2.10;;;15.10;99.90;;;;;;4968073;28;20057;-76
2023/05/12 10:22:00;;;;;;;3.33;1.63;;;15.20;99.90;;;;;;4962359;28;20309;-75
2023/05/12 10:24:27;;;;;;;3.65;2.13;;;15.30;99.90;;;;;;4956070;29;20446;-75
2023/05/12 10:27:08;;;;;;;2.67;2.00;;;15.40;99.90;;;;;;4955263;28;20027;-75
2023/05/12 10:29:38;;;;;;;1.98;1.58;;;15.40;99.90;;;;;;4956028;29;20034;-75
2023/05/12 10:32:05;;;;;;;2.38;1.90;;;15.40;99.90;;;;;;4951862;28;20074;-75
2023/05/12 10:34:38;;;;;;;3.55;1.40;;;15.40;99.90;;;;;;4952907;28;20027;-75
2023/05/12 10:37:18;;;;;;;2.30;1.50;;;15.40;99.90;;;;;;4958677;28;20035;-74
2023/05/12 10:39:59;;;;;;;2.17;1.77;;;15.30;99.90;;;;;;4953833;28;20261;-75
2023/05/12 10:42:40;;;;;;;3.78;1.90;;;15.20;99.90;;;;;;4956984;28;20019;-75
2023/05/12 10:45:16;;;;;;;7.68;3.63;;;15.20;99.90;;;;;;4939070;28;20023;-75
2023/05/12 10:47:46;;;;;;;11.57;4.10;;;15.20;99.90;;;;;;4954853;28;20118;-75
2023/05/12 10:50:12;;;;;;;3.78;1.65;;;15.10;99.90;;;;;;4957777;28;20046;-75
2023/05/12 10:52:55;;;;;;;2.67;1.67;;;15.00;99.90;;;;;;4956037;28;20035;-75
2023/05/12 10:55:44;;;;;;;4.05;1.88;;;14.80;99.90;;;;;;4949446;28;20080;-74
2023/05/12 10:58:13;;;;;;;4.55;2.22;;;14.70;99.90;;;;;;4964555;28;20027;-75
2023/05/12 11:00:43;;;;;;;5.72;3.20;;;14.60;99.90;;;;;;4955202;29;20136;-75
2023/05/12 11:03:14;;;;;;;2.95;1.98;;;14.50;99.90;;;;;;4963562;28;20410;-75
2023/05/12 11:05:39;;;;;;;5.18;2.60;;;14.40;99.90;;;;;;4955758;29;20043;-75
2023/05/12 11:08:05;;;;;;;3.90;2.22;;;14.20;99.90;;;;;;4962299;28;20023;-75
2023/05/12 11:10:39;;;;;;;4.20;2.50;;;14.20;99.90;;;;;;4974995;28;20027;-75
2023/05/12 11:13:08;;;;;;;5.78;2.53;;;14.10;99.90;;;;;;4956853;28;20028;-75
2023/05/12 11:15:34;;;;;;;5.90;3.15;;;14.20;99.90;;;;;;4958323;28;20494;-75
2023/05/12 11:18:03;;;;;;;3.08;2.33;;;14.20;99.90;;;;;;4984649;28;20082;-75
2023/05/12 11:20:28;;;;;;;3.40;2.40;;;14.30;99.90;;;;;;4943637;29;20031;-74
2023/05/12 11:22:54;;;;;;;3.13;2.05;;;14.30;99.90;;;;;;4953556;29;20038;-75
2023/05/12 11:25:27;;;;;;;2.88;1.50;;;14.40;99.90;;;;;;4960457;28;20391;-75
2023/05/12 11:27:55;;;;;;;1.70;1.17;;;14.40;99.90;;;;;;4954443;29;20093;-74
2023/05/12 11:30:36;;;;;;;2.47;1.50;;;14.40;99.90;;;;;;4957462;28;20031;-75
2023/05/12 11:33:07;;;;;;;2.97;1.20;;;14.40;99.90;;;;;;4950852;29;20063;-75
2023/05/12 11:35:39;;;;;;;2.67;1.35;;;14.40;99.90;;;;;;4954682;28;20031;-75
2023/05/12 11:38:16;;;;;;;2.88;1.75;;;14.50;99.90;;;;;;4967645;28;20027;-75
2023/05/12 11:40:45;;;;;;;2.05;1.50;;;14.50;99.90;;;;;;4954205;28;20107;-75
2023/05/12 11:43:13;;;;;;;2.15;1.60;;;14.60;99.90;;;;;;4955414;28;20382;-75
2023/05/12 11:45:44;;;;;;;3.92;1.65;;;14.70;99.90;;;;;;4953244;28;20085;-75
2023/05/12 11:48:12;;;;;;;7.50;1.88;;;14.80;99.90;;;;;;4975943;28;20030;-75
2023/05/12 11:50:45;;;;;;;2.35;1.50;;;14.80;99.90;;;;;;4958046;28;20019;-75
2023/05/12 11:53:18;;;;;;;4.95;1.50;;;14.80;99.90;;;;;;4954766;28;20023;-75
2023/05/12 11:55:55;;;;;;;2.63;1.63;;;14.90;99.90;;;;;;4955962;28;20055;-75
2023/05/12 11:58:25;;;;;;;4.18;1.90;;;14.90;99.90;;;;;;4955738;28;20056;-75
2023/05/12 12:00:56;;;;;;;5.50;2.42;;;15.00;99.90;;;;;;4968626;28;20027;-75
2023/05/12 12:03:23;;;;;;;4.18;2.13;;;15.00;99.90;;;;;;4954414;28;20148;-75
2023/05/12 12:06:09;;;;;;;4.82;2.17;;;14.90;99.90;;;;;;4958722;28;20089;-77
2023/05/12 12:08:39;;;;;;;1.17;0.93;;;14.90;99.90;;;;;;4952766;28;20094;-75
2023/05/12 12:11:10;;;;;;;2.75;1.50;;;14.80;99.90;;;;;;4956929;28;20343;-75
2023/05/12 12:13:46;;;;;;;2.83;1.67;;;14.80;99.90;;;;;;4968393;28;20031;-75
2023/05/12 12:16:15;;;;;;;4.85;1.17;;;14.80;99.90;;;;;;4954580;28;20043;-75
2023/05/12 12:18:43;;;;;;;1.58;1.02;;;14.90;99.90;;;;;;4954139;28;20027;-77
2023/05/12 12:21:12;;;;;;;1.40;0.80;;;14.90;99.90;;;;;;4965850;28;20034;-74
2023/05/12 12:23:43;;;;;;;0.80;0.60;;;14.90;99.90;;;;;;4951628;28;20036;-75
2023/05/12 12:26:09;;;;;;;1.10;0.60;;;14.90;99.90;;;;;;4950664;28;20090;-75
2023/05/12 12:28:35;;;;;;;2.25;0.70;;;15.00;99.90;;;;;;4963615;28;20039;-75
2023/05/12 12:31:01;;;;;;;1.40;0.60;;;15.00;99.90;;;;;;4966231;28;20130;-75
2023/05/12 12:33:27;;;;;;;1.63;0.80;;;15.10;99.90;;;;;;4960779;28;20035;-75
2023/05/12 12:35:59;;;;;;;0.90;0.60;;;15.10;99.90;;;;;;4950243;28;20027;-75
2023/05/12 12:38:34;;;;;;;1.80;0.93;;;15.10;99.90;;;;;;4950596;28;20096;-75
2023/05/12 12:40:59;;;;;;;4.68;1.27;;;15.20;99.90;;;;;;4947330;28;20096;-76
2023/05/12 12:43:37;;;;;;;1.20;0.80;;;15.10;99.90;;;;;;4930284;28;20043;-76
2023/05/12 12:46:06;;;;;;;2.28;1.00;;;15.10;99.90;;;;;;4946145;28;20027;-75
2023/05/12 12:48:32;;;;;;;2.28;0.70;;;15.20;99.90;;;;;;4948789;28;20024;-76
2023/05/12 12:51:01;;;;;;;3.22;0.98;;;15.20;99.90;;;;;;4945094;28;20020;-75
2023/05/12 12:53:29;;;;;;;5.85;1.95;;;15.10;99.90;;;;;;4946717;28;20483;-75